createdAt,value
2018-08-17T00:01:05.795Z,3.93
2018-08-17T00:03:35.090Z,4.90
2018-08-17T00:06:04.724Z,3.57
2018-08-17T00:08:34.074Z,4.40
2018-08-17T00:11:03.466Z,3.87
2018-08-17T00:13:32.809Z,4.07
2018-08-17T00:16:02.129Z,4.37
2018-08-17T00:18:31.431Z,3.63
2018-08-17T00:21:00.841Z,4.40
2018-08-17T00:23:30.137Z,3.73
2018-08-17T00:26:05.869Z,5.83
2018-08-17T00:28:35.208Z,4.27
2018-08-17T00:31:04.625Z,6.93
2018-08-17T00:33:33.978Z,3.90
2018-08-17T00:36:03.293Z,3.60
2018-08-17T00:38:33.057Z,3.53
2018-08-17T00:41:02.427Z,4.00
2018-08-17T00:43:31.760Z,4.17
2018-08-17T00:46:01.795Z,4.63
2018-08-17T00:48:31.286Z,3.43
2018-08-17T00:51:00.667Z,4.43
2018-08-17T00:53:30.085Z,5.50
2018-08-17T00:55:59.421Z,4.60
2018-08-17T00:58:28.894Z,5.70
2018-08-17T01:00:58.274Z,5.10
2018-08-17T01:03:28.676Z,3.83
2018-08-17T01:05:58.000Z,3.90
2018-08-17T01:08:27.483Z,4.10
2018-08-17T01:10:56.897Z,4.03
2018-08-17T01:13:26.210Z,3.97
2018-08-17T01:15:55.535Z,4.60
2018-08-17T01:18:24.912Z,4.00
2018-08-17T01:20:54.412Z,4.80
2018-08-17T01:23:23.769Z,4.90
2018-08-17T01:25:53.093Z,5.23
2018-08-17T01:28:22.516Z,6.63
2018-08-17T01:30:51.901Z,3.80
2018-08-17T01:33:21.250Z,6.20
2018-08-17T01:35:50.600Z,4.27
2018-08-17T01:38:19.953Z,4.13
2018-08-17T01:40:49.357Z,4.13
2018-08-17T01:43:18.736Z,5.40
2018-08-17T01:45:48.037Z,4.30
2018-08-17T01:48:17.363Z,4.50
2018-08-17T01:50:46.781Z,3.60
2018-08-17T01:53:16.096Z,3.23
2018-08-17T01:55:45.445Z,3.77
2018-08-17T01:58:14.773Z,4.10
2018-08-17T02:00:45.241Z,6.87
2018-08-17T02:03:14.573Z,4.37
2018-08-17T02:05:43.964Z,4.20
2018-08-17T02:08:13.304Z,3.83
2018-08-17T02:10:43.537Z,3.90
2018-08-17T02:13:12.857Z,3.97
2018-08-17T02:15:42.273Z,4.03
2018-08-17T02:18:11.606Z,4.00
2018-08-17T02:20:41.611Z,4.23
2018-08-17T02:23:10.964Z,3.50
2018-08-17T02:25:40.314Z,5.53
2018-08-17T02:28:09.681Z,4.57
2018-08-17T02:30:39.202Z,6.57
2018-08-17T02:33:08.532Z,4.57
2018-08-17T02:35:37.861Z,3.80
2018-08-17T02:38:07.193Z,4.17
2018-08-17T02:40:36.970Z,3.67
2018-08-17T02:43:06.369Z,5.33
2018-08-17T02:45:35.737Z,3.80
2018-08-17T02:48:05.157Z,3.77
2018-08-17T02:50:34.565Z,5.37
2018-08-17T02:53:03.897Z,4.30
2018-08-17T02:55:33.237Z,3.80
2018-08-17T02:58:02.550Z,4.87
2018-08-17T03:00:31.967Z,4.07
2018-08-17T03:03:01.360Z,4.23
2018-08-17T03:05:30.688Z,3.80
2018-08-17T03:08:00.023Z,3.37
2018-08-17T03:10:29.397Z,3.70
2018-08-17T03:12:59.129Z,3.70
2018-08-17T03:15:27.899Z,3.73
2018-08-17T03:17:57.249Z,3.57
2018-08-17T03:20:26.823Z,3.47
2018-08-17T03:22:56.149Z,4.80
2018-08-17T03:25:25.502Z,3.37
2018-08-17T03:27:54.886Z,3.40
2018-08-17T03:30:24.328Z,4.10
2018-08-17T03:32:53.656Z,4.57
2018-08-17T03:35:22.995Z,3.30
2018-08-17T03:37:52.311Z,3.17
2018-08-17T03:40:21.661Z,3.30
2018-08-17T03:42:51.092Z,4.00
2018-08-17T03:45:20.492Z,2.90
2018-08-17T03:47:50.012Z,3.50
2018-08-17T03:50:19.572Z,3.10
2018-08-17T03:52:49.150Z,3.93
2018-08-17T03:55:18.469Z,3.47
2018-08-17T03:57:47.828Z,3.83
2018-08-17T04:00:17.394Z,3.30
2018-08-17T04:02:46.733Z,4.53
2018-08-17T04:05:16.076Z,4.03
2018-08-17T04:07:45.408Z,3.93
2018-08-17T04:10:14.834Z,4.30
2018-08-17T04:12:44.132Z,5.67
2018-08-17T04:15:13.437Z,3.00
2018-08-17T04:17:43.387Z,3.13
2018-08-17T04:20:12.954Z,3.60
2018-08-17T04:22:42.502Z,3.30
2018-08-17T04:25:12.913Z,3.50
2018-08-17T04:27:42.472Z,3.07
2018-08-17T04:30:12.051Z,3.40
2018-08-17T04:32:42.356Z,3.33
2018-08-17T04:35:11.879Z,3.00
2018-08-17T04:37:41.258Z,3.03
2018-08-17T04:40:10.609Z,3.30
2018-08-17T04:42:39.959Z,3.30
2018-08-17T04:45:09.806Z,4.13
2018-08-17T04:47:39.245Z,3.10
2018-08-17T04:50:09.836Z,3.77
2018-08-17T04:52:40.005Z,4.70
2018-08-17T04:55:09.853Z,2.63
2018-08-17T04:57:41.325Z,3.00
2018-08-17T05:00:11.410Z,2.80
2018-08-17T05:02:41.062Z,3.50
2018-08-17T05:05:10.573Z,2.80
2018-08-17T05:07:40.286Z,3.17
2018-08-17T05:10:09.897Z,7.83
2018-08-17T05:12:39.288Z,13.40
2018-08-17T05:15:08.733Z,6.70
2018-08-17T05:17:38.204Z,13.43
2018-08-17T05:20:07.846Z,12.23
2018-08-17T05:22:37.300Z,11.43
2018-08-17T05:25:06.912Z,13.13
2018-08-17T05:27:36.398Z,11.87
2018-08-17T05:30:06.087Z,12.27
2018-08-17T05:32:35.731Z,12.73
2018-08-17T05:35:05.482Z,21.33
2018-08-17T05:37:35.127Z,16.70
2018-08-17T05:40:05.433Z,13.13
2018-08-17T05:42:35.082Z,8.27
2018-08-17T05:45:04.849Z,4.00
2018-08-17T05:47:34.422Z,13.50
2018-08-17T05:50:04.107Z,6.13
2018-08-17T05:52:34.182Z,7.43
2018-08-17T05:55:03.929Z,6.97
2018-08-17T05:57:33.606Z,8.33
2018-08-17T06:00:03.393Z,7.10
2018-08-17T06:02:33.089Z,5.10
2018-08-17T06:05:02.783Z,8.27
2018-08-17T06:07:32.487Z,6.30
2018-08-17T06:10:02.125Z,7.90
2018-08-17T06:12:31.719Z,4.50
2018-08-17T06:15:01.306Z,7.30
2018-08-17T06:17:30.815Z,6.50
2018-08-17T06:20:00.656Z,6.83
2018-08-17T06:22:30.440Z,6.00
2018-08-17T06:25:00.665Z,9.77
2018-08-17T06:27:30.349Z,5.33
2018-08-17T06:29:59.892Z,5.03
2018-08-17T06:32:29.408Z,8.00
2018-08-17T06:34:59.510Z,8.93
2018-08-17T06:37:28.918Z,4.23
2018-08-17T06:39:58.411Z,9.27
2018-08-17T06:42:27.793Z,4.60
2018-08-17T06:44:57.294Z,4.03
2018-08-17T06:47:26.798Z,5.23
2018-08-17T06:49:56.305Z,3.27
2018-08-17T06:52:25.801Z,6.53
2018-08-17T06:54:55.229Z,6.43
2018-08-17T06:57:25.454Z,4.90
2018-08-17T06:59:55.056Z,5.37
2018-08-17T07:02:24.505Z,6.70
2018-08-17T07:04:54.077Z,7.57
2018-08-17T07:07:23.729Z,3.70
2018-08-17T07:09:53.328Z,3.57
2018-08-17T07:12:22.833Z,3.00
2018-08-17T07:14:52.391Z,5.27
2018-08-17T07:17:22.016Z,5.13
2018-08-17T07:19:51.589Z,2.63
2018-08-17T07:22:21.109Z,4.37
2018-08-17T07:24:50.699Z,5.13
2018-08-17T07:27:20.234Z,4.93
2018-08-17T07:29:49.961Z,3.73
2018-08-17T07:32:19.590Z,2.90
2018-08-17T07:43:48.268Z,8.60
2018-08-17T07:46:18.781Z,6.30
2018-08-17T07:48:59.075Z,5.77
2018-08-17T09:01:15.694Z,3.70
2018-08-17T09:03:45.182Z,3.67
2018-08-17T09:06:14.719Z,4.17
2018-08-17T09:08:44.960Z,3.63
2018-08-17T09:11:14.550Z,5.10
2018-08-17T09:13:44.039Z,5.93
2018-08-17T09:16:13.582Z,3.30
2018-08-17T09:18:43.177Z,4.10
2018-08-17T09:21:12.829Z,3.90
2018-08-17T09:23:42.321Z,3.90
2018-08-17T09:26:11.913Z,3.70
2018-08-17T09:28:42.440Z,3.93
2018-08-17T09:31:12.430Z,4.80
2018-08-17T09:33:43.226Z,4.83
2018-08-17T09:36:12.792Z,4.00
2018-08-17T09:38:42.318Z,4.97
2018-08-17T09:41:11.912Z,3.80
2018-08-17T09:43:41.455Z,4.10
2018-08-17T09:46:10.996Z,3.97
2018-08-17T09:48:40.549Z,5.30
2018-08-17T09:51:10.502Z,4.10
2018-08-17T09:53:40.028Z,4.53
2018-08-17T09:56:09.544Z,4.40
2018-08-17T09:58:39.116Z,3.87
2018-08-17T10:01:13.726Z,3.73
2018-08-17T10:03:44.659Z,4.57
2018-08-17T10:06:19.251Z,5.00
2018-08-17T10:08:53.726Z,3.87
2018-08-17T10:11:23.423Z,6.30
2018-08-17T10:13:52.966Z,4.00
2018-08-17T10:16:23.105Z,11.37
2018-08-17T10:18:52.624Z,67.40
2018-08-17T10:21:22.320Z,56.00
2018-08-17T10:23:51.667Z,98.77
2018-08-17T10:26:21.316Z,169.50
2018-08-17T10:28:50.865Z,159.30
2018-08-17T10:31:20.372Z,125.57
2018-08-17T10:33:50.198Z,117.20
2018-08-17T10:36:19.690Z,118.57
2018-08-17T10:38:49.236Z,212.17
2018-08-17T10:41:18.845Z,269.63
2018-08-17T10:43:48.444Z,227.30
2018-08-17T10:46:18.041Z,199.27
2018-08-17T10:48:47.652Z,181.03
2018-08-17T10:51:17.291Z,168.00
2018-08-17T10:53:47.958Z,154.13
2018-08-17T10:56:17.610Z,162.30
2018-08-17T10:58:47.089Z,158.10
2018-08-17T11:01:16.732Z,150.20
2018-08-17T11:03:46.297Z,136.77
2018-08-17T11:06:17.869Z,130.50
2018-08-17T11:08:47.399Z,119.57
2018-08-17T11:11:16.887Z,116.17
2018-08-17T11:13:46.415Z,111.67
2018-08-17T11:16:16.042Z,113.50
2018-08-17T11:18:46.627Z,105.07
2018-08-17T11:21:16.336Z,106.83
2018-08-17T11:23:45.990Z,98.03
2018-08-17T11:26:15.561Z,86.10
2018-08-17T11:28:45.089Z,82.07
2018-08-17T11:31:14.716Z,84.20
2018-08-17T11:33:47.597Z,82.90
2018-08-17T11:36:26.067Z,73.40
2018-08-17T11:38:55.622Z,74.77
2018-08-17T11:41:25.310Z,73.10
2018-08-17T11:44:00.219Z,73.13
2018-08-17T11:46:29.969Z,76.80
2018-08-17T11:48:59.627Z,64.87
2018-08-17T11:51:29.339Z,63.07
2018-08-17T11:53:59.135Z,59.57
2018-08-17T11:56:28.837Z,58.00
2018-08-17T11:58:59.295Z,55.50
2018-08-17T12:01:29.029Z,57.07
2018-08-17T12:04:01.674Z,53.53
2018-08-17T12:06:31.656Z,54.53
2018-08-17T12:09:01.414Z,50.93
2018-08-17T12:11:31.413Z,48.57
2018-08-17T12:14:04.823Z,47.87
2018-08-17T12:16:37.509Z,48.30
2018-08-17T12:19:09.447Z,47.30
2018-08-17T12:21:40.121Z,42.57
2018-08-17T12:24:09.910Z,41.27
2018-08-17T12:26:44.692Z,42.23
2018-08-17T12:29:14.461Z,40.40
2018-08-17T12:31:44.246Z,39.83
2018-08-17T12:34:30.943Z,41.77
2018-08-17T12:43:14.133Z,36.30
2018-08-17T12:45:44.404Z,36.50
2018-08-17T12:48:15.171Z,35.47
2018-08-17T12:50:45.621Z,36.60
2018-08-17T12:53:15.417Z,34.23
2018-08-17T12:55:44.983Z,32.43
2018-08-17T12:58:15.226Z,35.93
2018-08-17T13:00:46.951Z,30.87
2018-08-17T13:03:18.003Z,28.57
2018-08-17T13:05:52.659Z,30.63
2018-08-17T13:08:23.672Z,28.17
2018-08-17T13:10:53.301Z,25.57
2018-08-17T13:13:22.974Z,26.93
2018-08-17T13:15:57.615Z,24.83
2018-08-17T13:18:27.398Z,25.10
2018-08-17T13:20:57.194Z,25.87
2018-08-17T13:23:26.755Z,23.73
2018-08-17T13:25:56.581Z,24.43
2018-08-17T13:28:26.301Z,23.97
2018-08-17T13:30:55.986Z,23.60
2018-08-17T13:33:26.660Z,25.40
2018-08-17T13:35:56.378Z,21.50
2018-08-17T13:38:34.761Z,19.90
2018-08-17T13:41:31.263Z,20.33
2018-08-17T13:44:16.773Z,20.00
2018-08-17T13:46:55.212Z,22.57
2018-08-17T13:49:26.119Z,17.77
2018-08-17T13:51:55.720Z,16.93
2018-08-17T13:54:25.399Z,17.27
2018-08-17T13:56:54.947Z,16.17
2018-08-17T13:59:24.630Z,18.47
2018-08-17T14:01:54.309Z,15.60
2018-08-17T14:04:23.916Z,15.97
2018-08-17T14:06:53.531Z,17.23
2018-08-17T14:09:23.292Z,14.03
2018-08-17T14:11:53.239Z,13.70
2018-08-17T14:14:22.753Z,13.90
2018-08-17T14:16:52.370Z,14.63
2018-08-17T14:20:24.835Z,13.67
2018-08-17T14:22:54.332Z,14.70
2018-08-17T14:25:23.884Z,14.70
2018-08-17T14:27:53.402Z,12.87
2018-08-17T14:30:22.997Z,12.73
2018-08-17T14:32:52.554Z,13.63
2018-08-17T14:35:22.144Z,12.33
2018-08-17T14:37:51.690Z,12.00
2018-08-17T14:40:22.229Z,13.03
2018-08-17T14:42:51.767Z,11.37
2018-08-17T14:45:21.367Z,11.00
2018-08-17T14:47:50.861Z,11.20
2018-08-17T14:50:20.478Z,11.10
2018-08-17T14:52:49.953Z,10.87
2018-08-17T14:55:19.493Z,11.00
2018-08-17T14:57:49.034Z,10.13
2018-08-17T15:00:18.670Z,10.30
2018-08-17T15:02:48.883Z,11.67
2018-08-17T15:05:18.472Z,9.97
2018-08-17T15:07:48.047Z,10.87
2018-08-17T15:10:17.634Z,8.93
2018-08-17T15:12:48.283Z,10.37
2018-08-17T15:15:17.830Z,10.23
2018-08-17T15:17:47.404Z,8.97
2018-08-17T15:20:17.129Z,9.83
2018-08-17T15:22:46.752Z,8.47
2018-08-17T15:25:16.386Z,9.13
2018-08-17T15:27:46.010Z,9.80
2018-08-17T15:30:15.731Z,9.73
2018-08-17T15:32:45.346Z,8.63
2018-08-17T15:35:14.845Z,8.93
2018-08-17T15:37:44.537Z,8.57
2018-08-17T15:40:14.096Z,9.27
2018-08-17T15:42:43.625Z,14.70
2018-08-17T15:45:13.965Z,10.00
2018-08-17T15:47:50.241Z,8.97
2018-08-17T15:50:21.079Z,8.63
2018-08-17T15:52:50.633Z,10.03
2018-08-17T15:55:20.285Z,7.80
2018-08-17T15:57:49.874Z,9.43
2018-08-17T16:00:20.598Z,7.80
2018-08-17T16:02:50.000Z,7.97
2018-08-17T16:05:19.364Z,7.80
2018-08-17T16:07:48.784Z,7.90
2018-08-17T16:10:18.357Z,7.90
2018-08-17T16:12:47.920Z,7.33
2018-08-17T16:15:18.438Z,8.17
2018-08-17T16:17:48.015Z,8.80
2018-08-17T16:20:18.331Z,7.93
2018-08-17T16:22:47.813Z,8.13
2018-08-17T16:25:18.351Z,7.47
2018-08-17T16:27:47.884Z,9.67
2018-08-17T16:30:17.559Z,8.40
2018-08-17T16:32:48.224Z,7.10
2018-08-17T16:35:19.230Z,7.30
2018-08-17T16:37:49.414Z,9.87
2018-08-17T16:40:19.296Z,8.10
2018-08-17T16:42:51.389Z,7.00
2018-08-17T16:45:21.150Z,7.13
2018-08-17T16:47:50.672Z,10.23
2018-08-17T16:50:20.211Z,13.73
2018-08-17T16:52:49.814Z,9.90
2018-08-17T16:55:19.388Z,9.17
2018-08-17T16:57:48.925Z,9.07
2018-08-17T17:00:18.618Z,7.63
2018-08-17T17:02:48.194Z,7.63
2018-08-17T17:05:17.773Z,9.83
2018-08-17T17:07:47.401Z,8.60
2018-08-17T17:10:17.513Z,8.67
2018-08-17T17:12:47.125Z,7.20
2018-08-17T17:15:20.550Z,9.43
2018-08-17T17:18:10.901Z,8.60
2018-08-17T17:20:40.708Z,7.37
2018-08-17T17:23:11.580Z,6.97
2018-08-17T17:25:41.443Z,7.70
2018-08-17T17:28:10.933Z,6.57
2018-08-17T17:30:50.910Z,11.47
2018-08-17T17:33:20.577Z,7.37
2018-08-17T17:35:50.243Z,6.50
2018-08-17T17:38:19.741Z,6.87
2018-08-17T17:40:49.369Z,7.57
2018-08-17T17:43:19.754Z,6.10
2018-08-17T17:45:49.363Z,8.83
2018-08-17T17:48:20.749Z,7.57
2018-08-17T17:50:50.389Z,8.27
2018-08-17T17:53:19.936Z,7.03
2018-08-17T17:55:51.006Z,6.63
2018-08-17T17:58:21.808Z,7.07
2018-08-17T18:00:57.626Z,5.37
2018-08-17T18:03:28.669Z,8.10
2018-08-17T18:06:03.882Z,6.33
2018-08-17T18:08:33.469Z,6.10
2018-08-17T18:11:03.220Z,7.00
2018-08-17T18:13:32.823Z,6.20
2018-08-17T18:16:02.464Z,6.20
2018-08-17T18:18:32.103Z,7.67
2018-08-17T18:21:01.709Z,5.57
2018-08-17T18:23:31.231Z,6.57
2018-08-17T18:26:00.922Z,6.23
2018-08-17T18:28:30.496Z,8.00
2018-08-17T18:31:00.063Z,6.47
2018-08-17T18:33:29.702Z,5.83
2018-08-17T18:35:59.307Z,6.10
2018-08-17T18:38:28.808Z,5.50
2018-08-17T18:40:58.476Z,5.30
2018-08-17T18:43:28.020Z,5.80
2018-08-17T18:45:57.623Z,6.03
2018-08-17T18:48:27.490Z,5.67
2018-08-17T18:50:58.313Z,5.87
2018-08-17T18:53:27.862Z,6.07
2018-08-17T18:55:57.416Z,5.73
2018-08-17T18:58:26.990Z,5.43
2018-08-17T19:00:56.561Z,5.90
2018-08-17T19:03:26.306Z,5.50
2018-08-17T19:05:55.882Z,5.00
2018-08-17T19:08:25.456Z,5.17
2018-08-17T19:10:55.170Z,5.33
2018-08-17T19:13:24.752Z,5.13
2018-08-17T19:15:55.000Z,5.30
2018-08-17T19:18:29.054Z,5.60
2018-08-17T19:21:04.774Z,5.33
2018-08-17T19:23:34.366Z,5.13
2018-08-17T19:26:03.924Z,5.07
2018-08-17T19:28:33.531Z,5.23
2018-08-17T19:31:03.200Z,5.30
2018-08-17T19:33:32.808Z,5.27
2018-08-17T19:36:03.257Z,4.83
2018-08-17T19:38:42.820Z,5.27
2018-08-17T19:41:12.466Z,5.30
2018-08-17T19:43:42.010Z,4.87
2018-08-17T19:46:11.708Z,4.97
2018-08-17T19:48:42.358Z,5.50
2018-08-17T19:51:19.393Z,5.70
2018-08-17T19:53:49.035Z,5.20
2018-08-17T19:56:18.673Z,4.77
2018-08-17T19:58:48.231Z,5.30
2018-08-17T20:01:17.884Z,5.20
2018-08-17T20:03:47.419Z,5.00
2018-08-17T20:06:17.088Z,5.30
2018-08-17T20:08:46.693Z,5.20
2018-08-17T20:11:16.309Z,4.97
2018-08-17T20:13:46.021Z,5.00
2018-08-17T20:16:24.972Z,5.30
2018-08-17T20:18:55.329Z,5.20
2018-08-17T20:21:26.109Z,5.10
2018-08-17T20:23:55.783Z,5.13
2018-08-17T20:26:26.551Z,4.93
2018-08-17T20:28:55.917Z,5.10
2018-08-17T20:31:25.960Z,4.70
2018-08-17T20:33:55.675Z,4.77
2018-08-17T20:36:25.374Z,5.50
2018-08-17T20:38:55.108Z,4.30
2018-08-17T20:41:24.842Z,4.97
2018-08-17T20:43:54.542Z,5.10
2018-08-17T20:46:24.520Z,5.30
2018-08-17T20:48:54.578Z,5.00
2018-08-17T20:51:27.256Z,4.80
2018-08-17T20:53:59.476Z,5.23
2018-08-17T20:56:29.754Z,4.93
2018-08-17T20:58:59.390Z,4.40
2018-08-17T21:01:29.172Z,4.70
2018-08-17T21:03:58.942Z,4.60
2018-08-17T21:06:28.599Z,4.43
2018-08-17T21:08:58.410Z,4.30
2018-08-17T21:11:28.309Z,4.60
2018-08-17T21:13:57.952Z,4.43
2018-08-17T21:16:27.966Z,4.40
2018-08-17T21:18:58.268Z,4.70
2018-08-17T21:21:28.141Z,4.70
2018-08-17T21:23:57.902Z,4.47
2018-08-17T21:26:28.172Z,4.60
2018-08-17T21:28:58.082Z,4.07
2018-08-17T21:31:27.836Z,4.30
2018-08-17T21:33:57.631Z,4.70
2018-08-17T21:36:27.303Z,4.43
2018-08-17T21:39:12.574Z,4.20
2018-08-17T21:41:45.287Z,4.07
2018-08-17T21:44:17.895Z,4.90
2018-08-17T21:47:05.640Z,9.03
2018-08-17T21:49:36.790Z,6.57
2018-08-17T21:52:09.716Z,15.87
2018-08-17T21:54:41.667Z,15.57
2018-08-17T21:57:11.017Z,16.07
2018-08-17T21:59:45.542Z,7.30
2018-08-17T22:02:14.948Z,11.60
2018-08-17T22:04:44.399Z,6.57
2018-08-17T22:07:24.149Z,11.53
2018-08-17T22:09:54.469Z,8.20
2018-08-17T22:12:23.940Z,6.00
2018-08-17T22:14:53.219Z,6.13
2018-08-17T22:17:33.886Z,6.23
2018-08-17T22:20:03.649Z,6.67
2018-08-17T22:22:33.149Z,6.40
2018-08-17T22:25:05.211Z,6.50
2018-08-17T22:27:34.550Z,6.37
2018-08-17T22:30:04.021Z,6.63
2018-08-17T22:32:33.373Z,6.50
2018-08-17T22:35:02.817Z,6.10
2018-08-17T22:37:32.204Z,6.37
2018-08-17T22:40:01.561Z,6.80
2018-08-17T22:42:30.891Z,6.03
2018-08-17T22:45:00.241Z,6.40
2018-08-17T22:47:29.564Z,6.33
2018-08-17T22:50:00.605Z,6.17
2018-08-17T22:52:35.024Z,6.30
2018-08-17T22:55:07.193Z,6.87
2018-08-17T22:57:36.635Z,6.27
2018-08-17T23:00:15.879Z,6.60
2018-08-17T23:02:46.133Z,6.03
2018-08-17T23:05:17.961Z,6.40
2018-08-17T23:07:47.760Z,6.07
2018-08-17T23:10:18.846Z,6.80
2018-08-17T23:12:49.192Z,7.30
2018-08-17T23:15:18.552Z,6.10
2018-08-17T23:17:50.549Z,7.47
2018-08-17T23:20:24.925Z,6.27
2018-08-17T23:22:55.612Z,6.40
2018-08-17T23:25:24.973Z,7.40
2018-08-17T23:27:54.650Z,6.43
2018-08-17T23:30:28.284Z,8.13
2018-08-17T23:42:23.821Z,6.77
